x

Ne Bahamas - 350 Nm Ene Of Nassau, Bahamas (41047) Wave Buoy

6:50pm - Fri 28th Aug 2015 All times are UTC.

  • Sig Wave height 4.3ft
  • Swell Direction
  • Peak Period 11s
  • Average Period 7s
  • Wind
    9mph, 11mph gusts
  • Sea Temp 86°f
  • Air Temp 85°f
  • Sea Pressure 1018.6mb

More Historic Weather Station data

Upgrade to MSW Pro to gain access to the past 30 days of data for over 8000 Wavebouys and Weather Stations around the globe.

Join Pro

Comparision Forecast

View Surf forecast
   
Fri 08/28 6:50pm 4.5ft 11s 7s 9 11 mph 1018.6mb 86f 85f
5:50pm 5ft 11s 7s 9 11 mph 1019.1mb 86f 85f
4:50pm 5ft 11s 7s 9 11 mph 1019.2mb 86f 85f
3:50pm 4.5ft 11s 7s 11 16 mph 1019.3mb 86f 85f
2:50pm 4.5ft 11s 6s 13 16 mph 1019.3mb 86f 85f
1:50pm 4.5ft 10s 6s 11 13 mph 1019mb 86f 85f
12:50pm 4.5ft 11s 6s 11 13 mph 1018.8mb 86f 85f
11:50am 4ft 11s 6s 11 16 mph 1018.3mb 86f 85f
10:50am 4ft 10s 6s 16 18 mph 1017.6mb 86f 84f
9:50am 4ft 11s 6s 13 18 mph 1017.4mb 86f 84f
8:50am 4ft 11s 6s 11 13 mph 1017.1mb 86f 84f
7:50am 4ft 8s 6s 11 13 mph 1017.3mb 86f 84f
6:50am 4ft 8s 6s 11 13 mph 1017.2mb 86f 84f
5:50am 3.5ft 8s 6s 13 16 mph 1017.6mb 86f 85f
4:50am 4ft 8s 6s 13 16 mph 1018mb 86f 85f
3:50am 3.5ft 8s 6s 11 13 mph 1018.5mb 86f 85f
2:50am 3.5ft 8s 6s 9 11 mph 1018.6mb 86f 85f
1:50am 4ft 8s 6s 11 13 mph 1018.4mb 86f 85f
12:50am 4ft 8s 6s 11 16 mph 1017.4mb 86f 85f
Thu 08/27 11:50pm 4ft 8s 6s 11 13 mph 1017.3mb 86f 85f
10:50pm 3.5ft 8s 6s 11 13 mph 1016.8mb 86f 86f
9:50pm 4ft 8s 5s 11 13 mph 1016.2mb 86f 86f
8:50pm 3.5ft 9s 5s 13 16 mph 1016.1mb 86f 86f
7:50pm 3.5ft 9s 5s 13 16 mph 1016.3mb 86f 86f
6:50pm 3.5ft 8s 5s 13 16 mph 1016.7mb 86f 86f
5:50pm 3.5ft 8s 5s 13 18 mph 1016.9mb 86f 86f
4:50pm 3.5ft 7s 5s 13 16 mph 1017.4mb 86f 86f
3:50pm 3.5ft 8s 5s 13 16 mph 1017.4mb 86f 85f
2:50pm 3.5ft 8s 5s 13 16 mph 1017.7mb 86f 85f
1:50pm 3.5ft 8s 5s 13 18 mph 1017.1mb 86f 85f
12:50pm 3.5ft 8s 5s 16 18 mph 1016.6mb 86f 85f
11:50am 3.5ft 9s 6s 13 16 mph 1016.2mb 86f 85f
10:50am 3.5ft 8s 5s 13 16 mph 1015.8mb 86f 85f
9:50am 3.5ft 8s 6s 11
mph
1015.6mb 86f 84f
8:50am 3.5ft 9s 6s 11 13 mph 1015.3mb 86f 84f
7:50am 4ft 8s 6s 11
mph
1015.4mb 86f 84f
6:50am 3.5ft 8s 6s 9 11 mph 1015.6mb 86f 84f
5:50am 4ft 9s 6s 9 13 mph 1016.2mb 86f 84f
4:50am 3.5ft 8s 6s 13 16 mph 1016.5mb 86f 84f
3:50am 3.5ft 9s 6s 13 16 mph 1017mb 86f 84f
2:50am 3.5ft 9s 6s 11 13 mph 1017.4mb 86f 84f
1:50am 3.5ft 9s 6s 11 13 mph 1017.2mb 86f 84f
12:50am 4ft 9s 6s 11 13 mph 1017mb 86f 84f
Wed 08/26 11:50pm 4ft 9s 6s 9 11 mph 1016.6mb 86f 84f
10:50pm 4ft 10s 6s 2 4 mph 1016.7mb 86f 85f
9:50pm 4ft 9s 7s 4 7 mph 1017mb 87f 85f
8:50pm 4ft 9s 6s 7 9 mph 1016.4mb 87f 85f
7:50pm 4ft 9s 6s 7 9 mph 1016.5mb 86f 85f
6:50pm 4ft 9s 6s 7 9 mph 1016.5mb 86f 85f
5:50pm 4ft 9s 6s 9 11 mph 1017.1mb 86f 85f
4:50pm 4ft 9s 6s 11 13 mph 1017.6mb 86f 85f
3:50pm 4.5ft 9s 6s 11 13 mph 1017.8mb 86f 85f
2:50pm 4ft 9s 6s 11
mph
1017.8mb 86f 85f
1:50pm 4.5ft 10s 6s 9 11 mph 1017.2mb 85f 85f
12:50pm 4.5ft 10s 6s 13 16 mph 1016.5mb 85f 85f
11:50am 4ft 10s 6s 11 16 mph 1016mb 85f 85f
10:50am 4.5ft 10s 6s 13 16 mph 1015.7mb 85f 85f
9:50am 4.5ft 10s 6s 9 13 mph 1015.3mb 85f 84f
8:50am 4.5ft 10s 6s 13 16 mph 1014.7mb 85f 84f
7:50am 4ft 10s 6s 13 16 mph 1014.5mb 85f 84f
6:50am 4.5ft 10s 6s 13 16 mph 1014.8mb 85f 84f
5:50am 4.5ft 10s 6s 13 18 mph 1015.2mb 85f 85f
4:50am 3.5ft 10s 6s 13 16 mph 1015.9mb 85f 85f
3:50am 3.5ft 11s 6s 9 11 mph 1016.4mb 85f 84f
2:50am 4ft 10s 6s 11 13 mph 1016.6mb 85f 84f
1:50am 3.5ft 11s 6s 7
mph
1016.9mb 85f 84f
12:50am 3.5ft 11s 6s 7
mph
1016.3mb 85f 84f
Tue 08/25 11:50pm 3.5ft 10s 5s 11
mph
1015.9mb 85f 85f
10:50pm 3.5ft 11s 5s 7 9 mph 1015.4mb 85f 84f
9:50pm 3.5ft 11s 5s 18 20 mph 1015.1mb 86f 85f
8:50pm 3.5ft 10s 5s 13 16 mph 1015mb 86f 85f
7:50pm 4ft 11s 5s 18 22 mph 1014.9mb 86f 84f
6:50pm 3.5ft 10s 5s 13 16 mph 1015.3mb 86f 85f
5:50pm 3.5ft 5s 5s 13 16 mph 1015.5mb 85f 85f
4:50pm 4ft 10s 5s 11 13 mph 1016.1mb 85f 85f
3:50pm 3.5ft 10s 5s 13 18 mph 1016mb 85f 85f
2:50pm 4ft 11s 5s 16 18 mph 1016mb 85f 85f
1:50pm 3.5ft 10s 5s 16 18 mph 1015.7mb 85f 85f
12:50pm 4.5ft 10s 5s 16 18 mph 1014.9mb 85f 85f
11:50am 4ft 10s 5s 16 18 mph 1014.6mb 85f 85f
10:50am 4ft 10s 5s 16 20 mph 1014mb 85f 84f
9:50am 4ft 6s 5s 18 22 mph 1013.2mb 85f 84f
8:50am 3.5ft 11s 5s 18 20 mph 1013mb 85f 84f
7:50am 4.5ft 10s 5s 18 20 mph 1013.2mb 85f 84f
6:50am 4ft 10s 5s 16 20 mph 1013.4mb 85f 83f
5:50am 4ft 10s 5s 16 18 mph 1013.8mb 85f 83f
4:50am 4ft 5s 5s 13 16 mph 1014.2mb 85f 83f
3:50am 4.5ft 11s 5s 11 13 mph 1014.2mb 85f 83f
2:50am 4ft 11s 5s 9 11 mph 1014.5mb 85f 83f
1:50am 4ft 10s 6s 13
mph
1014.5mb 85f 83f
12:50am 4ft 10s 6s 13 16 mph 1013.4mb 85f 82f
Mon 08/24 11:50pm 3.5ft 10s 6s 9 11 mph 1013.6mb 86f 81f
10:50pm 4ft 10s 6s 2 4 mph 1013.5mb 86f 78f
9:50pm 4ft 10s 5s 7
mph
1013.4mb 86f 80f
8:50pm 4ft 10s 5s 13 16 mph 1013mb 87f 82f